createdAt,value
2023-05-06T00:02:31.882Z,5.43
2023-05-06T00:07:33.396Z,4.20
2023-05-06T00:12:34.877Z,5.72
2023-05-06T00:17:36.466Z,5.18
2023-05-06T00:22:37.974Z,4.57
2023-05-06T00:27:39.513Z,5.57
2023-05-06T00:32:41.099Z,4.55
2023-05-06T00:37:45.697Z,5.00
2023-05-06T00:42:47.345Z,5.32
2023-05-06T00:47:49.243Z,5.43
2023-05-06T00:52:51.551Z,5.20
2023-05-06T00:57:54.052Z,5.05
2023-05-06T01:02:55.734Z,5.63
2023-05-06T01:08:08.907Z,5.47
2023-05-06T01:13:44.514Z,5.45
2023-05-06T01:18:49.314Z,6.67
2023-05-06T01:23:51.691Z,5.82
2023-05-06T01:28:53.837Z,6.00
2023-05-06T01:34:13.460Z,7.05
2023-05-06T01:39:30.945Z,6.25
2023-05-06T01:44:33.922Z,5.57
2023-05-06T01:49:36.774Z,6.05
2023-05-06T01:54:38.618Z,6.13
2023-05-06T01:59:40.271Z,6.90
2023-05-06T02:04:41.681Z,6.78
2023-05-06T02:09:43.337Z,6.65
2023-05-06T02:14:45.358Z,8.15
2023-05-06T02:19:46.828Z,8.40
2023-05-06T02:24:48.230Z,7.93
2023-05-06T02:29:49.641Z,8.50
2023-05-06T02:34:51.044Z,9.27
2023-05-06T02:39:52.634Z,8.27
2023-05-06T02:44:54.111Z,9.20
2023-05-06T02:49:55.592Z,9.70
2023-05-06T02:54:57.020Z,9.27
2023-05-06T02:59:58.566Z,9.82
2023-05-06T03:04:59.970Z,8.65
2023-05-06T03:10:01.838Z,9.48
2023-05-06T03:15:07.479Z,10.83
2023-05-06T03:20:09.378Z,10.75
2023-05-06T03:25:14.014Z,10.85
2023-05-06T03:30:16.780Z,11.27
2023-05-06T03:35:19.553Z,11.85
2023-05-06T03:40:25.627Z,12.02
2023-05-06T03:45:27.731Z,12.57
2023-05-06T03:50:31.368Z,12.70
2023-05-06T03:55:32.850Z,12.75
2023-05-06T04:00:35.397Z,11.50
2023-05-06T04:05:37.015Z,11.73
2023-05-06T04:10:40.130Z,12.45
2023-05-06T04:15:48.960Z,12.25
2023-05-06T04:20:55.290Z,13.52
2023-05-06T04:25:56.962Z,13.02
2023-05-06T04:30:59.970Z,12.73
2023-05-06T04:36:10.474Z,12.57
2023-05-06T04:41:17.373Z,13.35
2023-05-06T04:46:19.512Z,13.75
2023-05-06T04:51:21.543Z,12.77
2023-05-06T04:56:23.174Z,12.82
2023-05-06T05:01:25.090Z,11.88
2023-05-06T05:06:26.640Z,10.80
2023-05-06T05:11:28.258Z,10.63
2023-05-06T05:16:32.375Z,10.65
2023-05-06T05:21:35.932Z,9.88
2023-05-06T05:26:38.549Z,9.73
2023-05-06T05:31:40.187Z,9.18
2023-05-06T05:36:42.242Z,9.38
2023-05-06T05:41:46.384Z,8.88
2023-05-06T05:46:49.135Z,9.43
2023-05-06T05:51:53.721Z,10.90
2023-05-06T05:56:56.584Z,10.30
2023-05-06T06:01:59.215Z,10.52
2023-05-06T06:07:01.107Z,11.55
2023-05-06T06:12:04.861Z,10.35
2023-05-06T06:17:07.670Z,9.73
2023-05-06T06:22:09.494Z,9.60
2023-05-06T06:27:11.146Z,9.40
2023-05-06T06:32:12.845Z,9.00
2023-05-06T06:37:14.408Z,10.65
2023-05-06T06:42:15.831Z,10.65
2023-05-06T06:47:33.624Z,9.90
2023-05-06T06:52:35.411Z,11.30
2023-05-06T06:57:39.273Z,11.60
2023-05-06T07:02:40.746Z,10.38
2023-05-06T07:07:42.224Z,11.10
2023-05-06T07:12:43.704Z,11.65
2023-05-06T07:17:45.358Z,11.68
2023-05-06T07:22:46.838Z,11.77
2023-05-06T07:27:48.290Z,13.43
2023-05-06T07:32:49.879Z,11.05
2023-05-06T07:37:51.393Z,11.30
2023-05-06T07:42:52.807Z,13.25
2023-05-06T07:47:54.485Z,16.13
2023-05-06T07:52:55.943Z,13.93
2023-05-06T07:57:57.360Z,13.85
2023-05-06T08:02:58.834Z,15.77
2023-05-06T08:08:00.387Z,15.77
2023-05-06T08:13:01.835Z,16.85
2023-05-06T08:18:13.791Z,15.13
2023-05-06T08:23:22.867Z,16.25
2023-05-06T08:28:25.260Z,16.80
2023-05-06T08:33:26.961Z,18.23
2023-05-06T08:38:28.831Z,16.27
2023-05-06T08:43:33.520Z,17.63
2023-05-06T08:48:35.212Z,15.15
2023-05-06T08:53:36.697Z,17.13
2023-05-06T08:58:38.990Z,17.35
2023-05-06T09:03:40.553Z,17.15
2023-05-06T09:08:41.992Z,17.92
2023-05-06T09:13:43.566Z,16.77
2023-05-06T09:18:45.283Z,16.27
2023-05-06T09:23:46.919Z,16.75
2023-05-06T09:28:48.374Z,18.83
2023-05-06T09:33:50.134Z,17.67
2023-05-06T09:38:51.636Z,14.02
2023-05-06T09:43:54.221Z,14.13
2023-05-06T09:48:57.012Z,14.80
2023-05-06T09:54:00.457Z,15.82
2023-05-06T09:59:02.917Z,14.52
2023-05-06T10:04:08.081Z,14.13
2023-05-06T10:09:10.651Z,16.13
2023-05-06T10:14:12.798Z,17.27
2023-05-06T10:19:18.747Z,16.83
2023-05-06T10:24:27.380Z,16.52
2023-05-06T10:29:29.337Z,17.38
2023-05-06T10:34:37.959Z,15.05
2023-05-06T10:39:42.246Z,14.93
2023-05-06T10:45:01.010Z,14.40
2023-05-06T10:50:25.173Z,13.38
2023-05-06T10:55:35.637Z,14.38
2023-05-06T11:00:40.819Z,12.95
2023-05-06T11:05:52.056Z,13.35
2023-05-06T11:10:54.255Z,15.05
2023-05-06T11:15:56.784Z,17.25
2023-05-06T11:21:01.113Z,14.20
2023-05-06T11:26:07.201Z,15.32
2023-05-06T11:31:09.770Z,12.50
2023-05-06T11:36:15.518Z,13.15
2023-05-06T11:46:20.023Z,12.80
2023-05-06T11:51:22.385Z,13.75
2023-05-06T11:56:24.926Z,14.23
2023-05-06T12:01:26.365Z,12.52
2023-05-06T12:06:33.777Z,12.38
2023-05-06T12:11:35.710Z,12.35
2023-05-06T12:16:37.847Z,12.65
2023-05-06T12:21:39.587Z,13.55
2023-05-06T12:26:48.891Z,12.13
2023-05-06T12:32:06.868Z,12.35
2023-05-06T12:37:08.658Z,12.43
2023-05-06T12:42:10.204Z,12.55
2023-05-06T12:47:20.437Z,11.02
2023-05-06T12:52:23.723Z,11.93
2023-05-06T12:57:25.168Z,10.45
2023-05-06T13:02:26.732Z,11.38
2023-05-06T13:07:28.598Z,12.25
2023-05-06T13:12:30.037Z,12.15
2023-05-06T13:17:31.584Z,11.43
2023-05-06T13:22:40.325Z,12.00
2023-05-06T13:27:48.894Z,12.27
2023-05-06T13:32:50.373Z,12.43
2023-05-06T13:37:51.924Z,14.30
2023-05-06T13:42:53.398Z,15.00
2023-05-06T13:47:54.871Z,13.98
2023-05-06T13:52:56.342Z,12.57
2023-05-06T13:57:57.849Z,14.18
2023-05-06T14:02:59.888Z,14.10
2023-05-06T14:08:01.358Z,12.52
2023-05-06T14:13:04.723Z,11.68
2023-05-06T14:18:08.354Z,10.32
2023-05-06T14:23:09.860Z,10.60
2023-05-06T14:28:11.346Z,11.38
2023-05-06T14:33:12.911Z,10.43
2023-05-06T14:38:14.494Z,10.32
2023-05-06T14:43:15.928Z,10.23
2023-05-06T14:48:17.348Z,10.90
2023-05-06T14:53:18.791Z,10.18
2023-05-06T14:58:20.208Z,11.13
2023-05-06T15:03:21.617Z,10.20
2023-05-06T15:08:23.101Z,10.73
2023-05-06T15:13:24.769Z,9.57
2023-05-06T15:18:26.274Z,10.35
2023-05-06T15:23:28.021Z,10.10
2023-05-06T15:28:29.659Z,10.23
2023-05-06T15:33:31.244Z,9.88
2023-05-06T15:38:52.613Z,9.98
2023-05-06T15:43:56.008Z,12.10
2023-05-06T15:49:15.739Z,10.85
2023-05-06T15:54:19.123Z,11.65
2023-05-06T15:59:20.592Z,10.73
2023-05-06T16:04:22.547Z,10.80
2023-05-06T16:09:24.175Z,13.50
2023-05-06T16:14:25.605Z,11.40
2023-05-06T16:19:27.105Z,11.30
2023-05-06T16:24:28.533Z,10.20
2023-05-06T16:29:29.925Z,11.55
2023-05-06T16:34:31.463Z,9.90
2023-05-06T16:39:32.847Z,10.45
2023-05-06T16:44:34.243Z,10.93
2023-05-06T16:49:35.678Z,10.52
2023-05-06T16:54:37.077Z,12.85
2023-05-06T16:59:38.830Z,12.32
2023-05-06T17:04:40.801Z,13.55
2023-05-06T17:09:42.177Z,13.50
2023-05-06T17:14:43.594Z,14.23
2023-05-06T17:19:45.011Z,14.02
2023-05-06T17:24:46.665Z,18.85
2023-05-06T17:29:48.065Z,13.48
2023-05-06T17:34:49.557Z,16.20
2023-05-06T17:39:51.027Z,14.65
2023-05-06T17:44:52.448Z,15.38
2023-05-06T17:49:53.928Z,16.33
2023-05-06T17:55:10.709Z,16.27
2023-05-06T18:00:16.862Z,15.77
2023-05-06T18:05:18.297Z,13.98
2023-05-06T18:10:20.154Z,14.20
2023-05-06T18:15:21.594Z,15.40
2023-05-06T18:20:23.070Z,14.48
2023-05-06T18:25:24.640Z,16.27
2023-05-06T18:30:26.070Z,15.57
2023-05-06T18:35:27.506Z,15.40
2023-05-06T18:40:28.950Z,17.48
2023-05-06T18:45:30.464Z,16.35
2023-05-06T18:50:31.931Z,16.23
2023-05-06T18:55:33.364Z,16.70
2023-05-06T19:00:34.840Z,18.80
2023-05-06T19:05:36.306Z,24.85
2023-05-06T19:10:37.784Z,24.48
2023-05-06T19:15:39.177Z,22.90
2023-05-06T19:20:40.565Z,24.65
2023-05-06T19:25:42.015Z,22.55
2023-05-06T19:30:43.533Z,22.88
2023-05-06T19:35:45.004Z,25.98
2023-05-06T19:40:46.492Z,23.92
2023-05-06T19:45:48.036Z,24.17
2023-05-06T19:50:50.034Z,22.27
2023-05-06T19:55:54.133Z,23.33
2023-05-06T20:00:55.552Z,19.95
2023-05-06T20:05:57.147Z,22.50
2023-05-06T20:10:58.588Z,20.90
2023-05-06T20:16:00.017Z,17.15
2023-05-06T20:21:01.556Z,16.10
2023-05-06T20:26:02.998Z,16.17
2023-05-06T20:31:05.965Z,17.92
2023-05-06T20:36:07.454Z,17.25
2023-05-06T20:41:08.886Z,17.55
2023-05-06T20:46:10.359Z,16.45
2023-05-06T20:51:12.084Z,19.08
2023-05-06T20:56:20.729Z,17.88
2023-05-06T21:01:23.636Z,18.42
2023-05-06T21:06:25.179Z,18.88
2023-05-06T21:11:28.922Z,17.83
2023-05-06T21:16:30.732Z,17.10
2023-05-06T21:21:32.244Z,18.42
2023-05-06T21:26:33.670Z,20.05
2023-05-06T21:31:35.455Z,17.67
2023-05-06T21:36:37.063Z,15.73
2023-05-06T21:41:39.273Z,15.00
2023-05-06T21:46:40.848Z,16.02
2023-05-06T21:51:42.262Z,15.90
2023-05-06T21:56:43.850Z,15.32
2023-05-06T22:01:45.330Z,14.70
2023-05-06T22:06:46.787Z,14.80
2023-05-06T22:11:48.194Z,13.88
2023-05-06T22:16:49.591Z,12.63
2023-05-06T22:21:51.006Z,13.07
2023-05-06T22:26:52.440Z,12.32
2023-05-06T22:31:53.858Z,13.57
2023-05-06T22:36:55.782Z,12.73
2023-05-06T22:41:58.459Z,10.57
2023-05-06T22:47:00.053Z,12.13
2023-05-06T22:52:01.740Z,10.93
2023-05-06T22:57:03.344Z,10.40
2023-05-06T23:02:04.905Z,9.23
2023-05-06T23:07:06.354Z,8.52
2023-05-06T23:12:07.822Z,8.25
2023-05-06T23:17:09.332Z,8.15
2023-05-06T23:22:10.791Z,8.77
2023-05-06T23:27:12.219Z,9.43
2023-05-06T23:32:13.757Z,10.20
2023-05-06T23:37:15.204Z,11.77
2023-05-06T23:42:16.610Z,12.80
2023-05-06T23:47:18.584Z,13.52
2023-05-06T23:52:20.019Z,12.32
2023-05-06T23:57:21.448Z,14.75
